createdAt,value
2023-04-06T00:01:26.134Z,25.73
2023-04-06T00:03:53.868Z,27.08
2023-04-06T00:06:21.411Z,22.85
2023-04-06T00:08:48.900Z,21.00
2023-04-06T00:11:17.759Z,16.55
2023-04-06T00:13:46.024Z,20.38
2023-04-06T00:16:13.555Z,20.25
2023-04-06T00:18:41.570Z,21.48
2023-04-06T00:21:09.046Z,20.08
2023-04-06T00:23:36.638Z,12.10
2023-04-06T00:26:04.170Z,17.85
2023-04-06T00:28:31.677Z,15.43
2023-04-06T00:30:59.191Z,13.60
2023-04-06T00:33:26.778Z,15.57
2023-04-06T00:35:54.321Z,13.65
2023-04-06T00:38:23.223Z,18.15
2023-04-06T00:40:51.361Z,14.80
2023-04-06T00:43:19.120Z,14.25
2023-04-06T00:45:46.743Z,13.85
2023-04-06T00:48:14.299Z,14.65
2023-04-06T00:50:41.844Z,15.13
2023-04-06T00:53:09.328Z,17.95
2023-04-06T00:55:37.163Z,12.07
2023-04-06T00:58:05.815Z,14.55
2023-04-06T01:00:41.102Z,14.88
2023-04-06T01:03:10.927Z,15.85
2023-04-06T01:08:19.352Z,15.23
2023-04-06T01:10:47.735Z,12.50
2023-04-06T01:13:27.026Z,18.02
2023-04-06T01:15:57.340Z,13.98
2023-04-06T01:18:33.787Z,14.40
2023-04-06T01:21:16.759Z,14.68
2023-04-06T01:24:05.450Z,13.23
2023-04-06T01:26:44.113Z,13.95
2023-04-06T01:29:12.993Z,14.45
2023-04-06T01:31:41.159Z,12.23
2023-04-06T01:34:08.665Z,16.25
2023-04-06T01:36:36.401Z,14.45
2023-04-06T01:39:20.805Z,15.15
2023-04-06T01:41:48.382Z,16.40
2023-04-06T01:44:20.466Z,21.30
2023-04-06T01:46:54.171Z,15.07
2023-04-06T01:49:21.856Z,14.43
2023-04-06T01:51:55.397Z,20.48
2023-04-06T01:54:23.471Z,13.95
2023-04-06T01:57:09.556Z,16.13
2023-04-06T01:59:59.598Z,16.25
2023-04-06T02:02:40.942Z,13.73
2023-04-06T02:05:15.543Z,14.23
2023-04-06T02:07:43.536Z,15.45
2023-04-06T02:10:16.280Z,14.30
2023-04-06T02:12:44.946Z,13.68
2023-04-06T02:15:18.866Z,15.50
2023-04-06T02:17:46.470Z,12.95
2023-04-06T02:20:14.308Z,12.38
2023-04-06T02:22:41.832Z,16.90
2023-04-06T02:25:09.901Z,12.02
2023-04-06T02:27:37.787Z,17.45
2023-04-06T02:30:06.223Z,15.23
2023-04-06T02:32:33.824Z,17.83
2023-04-06T02:35:02.379Z,12.23
2023-04-06T02:37:31.305Z,20.13
2023-04-06T02:40:00.375Z,13.95
2023-04-06T02:42:29.451Z,13.02
2023-04-06T02:44:57.393Z,11.98
2023-04-06T02:47:28.263Z,14.32
2023-04-06T02:49:55.793Z,15.18
2023-04-06T02:52:23.397Z,15.75
2023-04-06T02:54:52.165Z,16.42
2023-04-06T02:57:25.957Z,16.23
2023-04-06T02:59:53.548Z,13.80
2023-04-06T03:02:27.518Z,11.73
2023-04-06T03:05:04.273Z,13.85
2023-04-06T03:07:36.497Z,11.35
2023-04-06T03:10:04.460Z,18.55
2023-04-06T03:12:33.381Z,20.17
2023-04-06T03:15:23.257Z,13.07
2023-04-06T03:18:01.686Z,10.75
2023-04-06T03:20:37.722Z,12.40
2023-04-06T03:23:05.334Z,12.30
2023-04-06T03:25:37.106Z,12.82
2023-04-06T03:28:07.362Z,13.80
2023-04-06T03:30:39.864Z,14.85
2023-04-06T03:33:07.537Z,13.95
2023-04-06T03:35:42.161Z,12.10
2023-04-06T03:38:09.746Z,15.63
2023-04-06T03:40:37.211Z,15.38
2023-04-06T03:43:05.864Z,12.88
2023-04-06T03:45:36.072Z,15.13
2023-04-06T03:48:05.001Z,13.50
2023-04-06T03:50:34.900Z,13.50
2023-04-06T03:53:05.184Z,16.77
2023-04-06T03:55:32.726Z,14.57
2023-04-06T03:58:00.351Z,17.02
2023-04-06T04:00:28.246Z,15.35
2023-04-06T04:02:56.413Z,17.33
2023-04-06T04:05:26.318Z,12.63
2023-04-06T04:07:54.466Z,17.55
2023-04-06T04:10:25.694Z,19.05
2023-04-06T04:12:53.183Z,17.20
2023-04-06T04:15:21.210Z,15.50
2023-04-06T04:17:50.516Z,19.13
2023-04-06T04:20:18.619Z,24.35
2023-04-06T04:22:46.153Z,15.80
2023-04-06T04:25:15.447Z,17.90
2023-04-06T04:27:47.904Z,14.90
2023-04-06T04:30:16.409Z,18.13
2023-04-06T04:32:44.063Z,13.63
2023-04-06T04:35:12.481Z,14.38
2023-04-06T04:37:42.769Z,18.70
2023-04-06T04:40:11.771Z,18.52
2023-04-06T04:45:29.477Z,13.05
2023-04-06T04:47:58.505Z,19.33
2023-04-06T04:50:31.081Z,17.85
2023-04-06T04:52:59.678Z,18.10
2023-04-06T04:55:30.266Z,22.70
2023-04-06T04:57:59.924Z,17.48
2023-04-06T05:00:48.078Z,16.45
2023-04-06T05:03:25.595Z,22.50
2023-04-06T05:06:06.425Z,23.00
2023-04-06T05:08:37.148Z,21.23
2023-04-06T05:11:05.495Z,26.25
2023-04-06T05:13:37.707Z,25.30
2023-04-06T05:16:10.818Z,24.88
2023-04-06T05:18:38.437Z,27.08
2023-04-06T05:21:07.586Z,24.27
2023-04-06T05:23:46.419Z,21.80
2023-04-06T05:26:13.945Z,22.70
2023-04-06T05:28:43.585Z,17.55
2023-04-06T05:31:11.513Z,13.25
2023-04-06T05:33:46.666Z,20.02
2023-04-06T05:36:16.855Z,15.23
2023-04-06T05:38:47.053Z,14.55
2023-04-06T05:41:24.774Z,17.23
2023-04-06T05:43:52.452Z,16.98
2023-04-06T05:46:20.829Z,27.40
2023-04-06T05:48:48.558Z,14.85
2023-04-06T05:51:16.483Z,13.77
2023-04-06T05:53:48.195Z,17.35
2023-04-06T05:56:15.962Z,13.52
2023-04-06T05:58:44.381Z,15.45
2023-04-06T06:01:14.971Z,20.63
2023-04-06T06:03:46.536Z,13.97
2023-04-06T06:06:14.369Z,16.92
2023-04-06T06:11:54.144Z,17.95
2023-04-06T06:14:25.964Z,11.65
2023-04-06T06:16:53.765Z,13.45
2023-04-06T06:19:21.824Z,10.55
2023-04-06T06:21:50.889Z,18.40
2023-04-06T06:24:18.447Z,13.57
2023-04-06T06:26:46.062Z,17.40
2023-04-06T06:29:15.006Z,17.13
2023-04-06T06:31:43.692Z,14.90
2023-04-06T06:34:11.691Z,15.88
2023-04-06T06:36:39.313Z,17.13
2023-04-06T06:39:09.879Z,16.27
2023-04-06T06:41:38.706Z,16.42
2023-04-06T06:44:07.666Z,16.63
2023-04-06T06:46:36.252Z,12.13
2023-04-06T06:49:04.143Z,12.70
2023-04-06T06:51:31.851Z,13.38
2023-04-06T06:53:59.388Z,13.73
2023-04-06T06:56:27.801Z,15.27
2023-04-06T06:58:56.346Z,22.08
2023-04-06T07:01:24.120Z,14.60
2023-04-06T07:03:51.989Z,15.95
2023-04-06T07:06:19.682Z,17.88
2023-04-06T07:08:47.203Z,16.67
2023-04-06T07:11:14.770Z,19.23
2023-04-06T07:13:42.231Z,16.50
2023-04-06T07:16:10.262Z,19.30
2023-04-06T07:18:38.868Z,13.68
2023-04-06T07:21:06.575Z,11.68
2023-04-06T07:23:34.097Z,14.60
2023-04-06T07:26:01.673Z,11.88
2023-04-06T07:28:29.184Z,11.13
2023-04-06T07:30:57.350Z,15.35
2023-04-06T07:33:25.043Z,15.52
2023-04-06T07:35:53.579Z,18.73
2023-04-06T07:38:21.118Z,12.38
2023-04-06T07:40:48.629Z,15.43
2023-04-06T07:43:16.748Z,13.20
2023-04-06T07:45:44.348Z,13.43
2023-04-06T07:48:12.512Z,16.27
2023-04-06T07:50:41.227Z,11.95
2023-04-06T07:53:10.293Z,17.00
2023-04-06T07:55:39.291Z,12.60
2023-04-06T07:58:06.885Z,11.85
2023-04-06T08:00:34.326Z,13.25
2023-04-06T08:03:01.968Z,12.65
2023-04-06T08:05:29.579Z,11.57
2023-04-06T08:07:57.034Z,11.20
2023-04-06T08:10:24.569Z,9.52
2023-04-06T08:12:53.052Z,11.05
2023-04-06T08:15:20.708Z,14.50
2023-04-06T08:17:48.323Z,13.65
2023-04-06T08:20:16.052Z,11.88
2023-04-06T08:22:43.562Z,16.75
2023-04-06T08:25:11.183Z,11.55
2023-04-06T08:27:38.639Z,9.40
2023-04-06T08:30:06.779Z,11.65
2023-04-06T08:32:34.413Z,13.52
2023-04-06T08:35:01.918Z,12.88
2023-04-06T08:37:29.748Z,14.02
2023-04-06T08:39:59.265Z,15.63
2023-04-06T08:42:29.635Z,13.18
2023-04-06T08:44:57.171Z,19.92
2023-04-06T08:47:25.101Z,15.40
2023-04-06T08:49:53.839Z,11.50
2023-04-06T08:52:21.653Z,10.07
2023-04-06T08:54:49.224Z,10.82
2023-04-06T08:57:17.664Z,12.23
2023-04-06T08:59:46.279Z,10.27
2023-04-06T09:02:18.761Z,13.23
2023-04-06T09:04:53.436Z,11.25
2023-04-06T09:07:21.927Z,10.63
2023-04-06T09:09:49.480Z,14.27
2023-04-06T09:12:27.770Z,13.07
2023-04-06T09:14:56.963Z,7.93
2023-04-06T09:17:26.962Z,10.85
2023-04-06T09:19:55.163Z,11.10
2023-04-06T09:22:22.921Z,14.15
2023-04-06T09:24:53.202Z,10.90
2023-04-06T09:27:37.841Z,13.80
2023-04-06T09:30:14.690Z,10.77
2023-04-06T09:32:47.895Z,8.27
2023-04-06T09:35:16.289Z,8.68
2023-04-06T09:37:44.699Z,9.75
2023-04-06T09:40:12.758Z,9.63
2023-04-06T09:42:43.104Z,14.35
2023-04-06T09:45:11.432Z,10.13
2023-04-06T09:47:41.407Z,10.52
2023-04-06T09:50:10.117Z,10.95
2023-04-06T09:52:51.579Z,10.73
2023-04-06T09:55:27.252Z,11.97
2023-04-06T09:58:20.218Z,12.73
2023-04-06T10:01:10.923Z,11.95
2023-04-06T10:03:52.287Z,10.23
2023-04-06T10:06:24.055Z,9.60
2023-04-06T10:08:52.691Z,10.68
2023-04-06T10:11:20.674Z,8.95
2023-04-06T10:13:49.874Z,8.38
2023-04-06T10:16:18.231Z,11.30
2023-04-06T10:18:51.623Z,10.65
2023-04-06T10:21:24.481Z,9.55
2023-04-06T10:24:03.156Z,15.43
2023-04-06T10:26:31.213Z,11.20
2023-04-06T10:29:06.225Z,12.15
2023-04-06T10:31:33.875Z,13.07
2023-04-06T10:34:03.584Z,8.40
2023-04-06T10:36:35.747Z,10.27
2023-04-06T10:41:43.283Z,10.30
2023-04-06T10:44:21.553Z,15.93
2023-04-06T10:46:58.003Z,14.02
2023-04-06T10:49:27.790Z,10.63
2023-04-06T10:51:57.285Z,10.88
2023-04-06T10:54:26.810Z,20.77
2023-04-06T10:56:54.322Z,12.55
2023-04-06T10:59:22.891Z,12.27
2023-04-06T11:01:51.523Z,12.77
2023-04-06T11:04:21.229Z,11.88
2023-04-06T11:06:50.324Z,16.85
2023-04-06T11:12:05.809Z,12.13
2023-04-06T11:14:33.274Z,14.05
2023-04-06T11:17:00.796Z,11.65
2023-04-06T11:19:28.642Z,13.60
2023-04-06T11:21:56.937Z,11.75
2023-04-06T11:24:26.383Z,17.80
2023-04-06T11:26:58.702Z,13.77
2023-04-06T11:29:34.876Z,14.38
2023-04-06T11:32:05.111Z,11.23
2023-04-06T11:34:38.020Z,12.43
2023-04-06T11:37:11.198Z,21.20
2023-04-06T11:39:47.679Z,14.02
2023-04-06T11:42:23.647Z,15.70
2023-04-06T11:44:54.001Z,14.25
2023-04-06T11:47:28.071Z,17.13
2023-04-06T11:49:55.727Z,17.90
2023-04-06T11:52:28.500Z,14.30
2023-04-06T11:54:57.944Z,15.27
2023-04-06T11:57:26.480Z,15.00
2023-04-06T11:59:54.705Z,16.85
2023-04-06T12:02:22.434Z,12.98
2023-04-06T12:04:50.111Z,13.68
2023-04-06T12:07:17.804Z,11.95
2023-04-06T12:09:45.480Z,15.02
2023-04-06T12:12:13.016Z,18.13
2023-04-06T12:14:40.587Z,14.68
2023-04-06T12:17:08.780Z,11.98
2023-04-06T12:19:36.278Z,15.88
2023-04-06T12:22:03.938Z,13.93
2023-04-06T12:24:31.806Z,13.48
2023-04-06T12:27:08.735Z,14.50
2023-04-06T12:29:37.568Z,15.10
2023-04-06T12:32:05.958Z,20.17
2023-04-06T12:34:33.488Z,17.25
2023-04-06T12:37:01.095Z,16.08
2023-04-06T12:39:29.139Z,14.82
2023-04-06T12:41:57.385Z,14.85
2023-04-06T12:44:26.325Z,15.88
2023-04-06T12:46:54.923Z,17.85
2023-04-06T12:49:22.924Z,16.05
2023-04-06T12:51:51.184Z,14.40
2023-04-06T12:54:18.768Z,15.75
2023-04-06T12:56:46.596Z,16.17
2023-04-06T12:59:14.165Z,16.70
2023-04-06T13:01:41.782Z,15.30
2023-04-06T13:04:09.305Z,18.70
2023-04-06T13:06:36.809Z,14.18
2023-04-06T13:09:06.517Z,19.45
2023-04-06T13:11:34.023Z,14.95
2023-04-06T13:14:01.520Z,16.55
2023-04-06T13:16:29.057Z,16.05
2023-04-06T13:18:56.823Z,16.05
2023-04-06T13:21:24.423Z,14.45
2023-04-06T13:23:52.086Z,13.20
2023-04-06T13:26:19.536Z,13.98
2023-04-06T13:28:47.118Z,14.43
2023-04-06T13:31:14.619Z,15.52
2023-04-06T13:33:42.173Z,16.42
2023-04-06T13:36:09.796Z,12.98
2023-04-06T13:38:39.894Z,16.40
2023-04-06T13:41:07.586Z,18.15
2023-04-06T13:43:35.183Z,14.50
2023-04-06T13:46:02.717Z,13.88
2023-04-06T13:48:30.498Z,16.23
2023-04-06T13:50:58.934Z,16.60
2023-04-06T13:53:26.419Z,17.40
2023-04-06T13:55:55.481Z,13.40
2023-04-06T13:58:23.115Z,17.20
2023-04-06T14:00:50.962Z,18.58
2023-04-06T14:03:18.660Z,21.50
2023-04-06T14:05:46.759Z,15.88
2023-04-06T14:08:14.475Z,14.40
2023-04-06T14:10:43.350Z,19.10
2023-04-06T14:13:11.538Z,16.08
2023-04-06T14:15:39.096Z,16.13
2023-04-06T14:18:07.091Z,16.60
2023-04-06T14:20:35.043Z,15.63
2023-04-06T14:23:03.049Z,17.55
2023-04-06T14:25:35.479Z,15.15
2023-04-06T14:28:03.584Z,19.55
2023-04-06T14:30:32.111Z,16.80
2023-04-06T14:32:59.633Z,13.95
2023-04-06T14:35:29.154Z,14.32
2023-04-06T14:37:59.105Z,18.10
2023-04-06T14:40:26.710Z,15.10
2023-04-06T14:42:54.254Z,15.50
2023-04-06T14:45:22.811Z,12.95
2023-04-06T14:47:50.692Z,17.10
2023-04-06T14:50:18.275Z,18.27
2023-04-06T14:52:47.293Z,16.10
2023-04-06T14:55:15.123Z,17.30
2023-04-06T14:57:42.629Z,13.30
2023-04-06T15:00:12.232Z,14.43
2023-04-06T15:02:40.881Z,12.48
2023-04-06T15:05:08.806Z,12.68
2023-04-06T15:07:36.458Z,13.07
2023-04-06T15:10:06.028Z,15.80
2023-04-06T15:12:33.837Z,14.13
2023-04-06T15:15:02.072Z,13.20
2023-04-06T15:17:29.602Z,13.70
2023-04-06T15:19:57.132Z,18.38
2023-04-06T15:22:24.627Z,12.50
2023-04-06T15:24:52.034Z,14.95
2023-04-06T15:27:19.528Z,17.05
2023-04-06T15:29:47.042Z,13.30
2023-04-06T15:32:14.683Z,16.30
2023-04-06T15:34:42.861Z,12.70
2023-04-06T15:37:10.556Z,15.15
2023-04-06T15:39:38.104Z,13.27
2023-04-06T15:42:05.694Z,13.98
2023-04-06T15:44:33.131Z,14.93
2023-04-06T15:47:00.617Z,15.27
2023-04-06T15:49:28.269Z,13.05
2023-04-06T15:51:55.990Z,14.75
2023-04-06T15:54:23.535Z,17.60
2023-04-06T15:56:51.262Z,16.70
2023-04-06T15:59:18.913Z,14.32
2023-04-06T16:01:47.052Z,14.85
2023-04-06T16:04:15.068Z,14.63
2023-04-06T16:06:42.731Z,16.58
2023-04-06T16:09:10.403Z,16.08
2023-04-06T16:11:37.925Z,13.38
2023-04-06T16:14:05.555Z,15.27
2023-04-06T16:16:33.219Z,15.68
2023-04-06T16:19:01.013Z,15.43
2023-04-06T16:21:28.874Z,12.35
2023-04-06T16:23:58.551Z,17.77
2023-04-06T16:26:27.622Z,16.75
2023-04-06T16:28:55.271Z,18.30
2023-04-06T16:31:24.666Z,18.15
2023-04-06T16:33:54.152Z,16.80
2023-04-06T16:36:34.753Z,17.27
2023-04-06T16:39:02.501Z,13.27
2023-04-06T16:41:30.092Z,14.35
2023-04-06T16:43:58.167Z,17.13
2023-04-06T16:46:32.697Z,17.23
2023-04-06T16:49:01.054Z,13.40
2023-04-06T16:51:29.085Z,15.43
2023-04-06T16:53:56.619Z,17.30
2023-04-06T16:56:24.093Z,15.27
2023-04-06T16:58:51.815Z,18.48
2023-04-06T17:01:25.550Z,13.20
2023-04-06T17:03:53.457Z,14.00
2023-04-06T17:06:21.560Z,15.80
2023-04-06T17:08:49.416Z,16.40
2023-04-06T17:11:20.530Z,13.30
2023-04-06T17:13:51.187Z,12.10
2023-04-06T17:16:19.494Z,13.55
2023-04-06T17:18:46.995Z,14.70
2023-04-06T17:21:14.628Z,14.40
2023-04-06T17:23:42.189Z,17.67
2023-04-06T17:26:09.684Z,17.33
2023-04-06T17:28:37.304Z,26.33
2023-04-06T17:31:10.274Z,15.27
2023-04-06T17:33:41.524Z,17.83
2023-04-06T17:36:10.946Z,17.92
2023-04-06T17:38:43.600Z,16.35
2023-04-06T17:41:12.963Z,27.25
2023-04-06T17:43:40.750Z,23.23
2023-04-06T17:46:08.439Z,18.70
2023-04-06T17:48:36.149Z,14.63
2023-04-06T17:51:04.001Z,20.63
2023-04-06T17:53:33.239Z,16.63
2023-04-06T17:56:04.311Z,17.05
2023-04-06T17:58:32.128Z,21.48
2023-04-06T18:00:59.617Z,17.80
2023-04-06T18:03:27.306Z,15.63
2023-04-06T18:05:55.070Z,19.08
2023-04-06T18:08:22.538Z,22.00
2023-04-06T18:10:50.325Z,21.48
2023-04-06T18:13:17.693Z,19.33
2023-04-06T18:15:45.788Z,24.67
2023-04-06T18:18:13.383Z,23.48
2023-04-06T18:20:41.714Z,19.65
2023-04-06T18:23:09.307Z,20.52
2023-04-06T18:25:40.492Z,20.60
2023-04-06T18:28:09.656Z,23.20
2023-04-06T18:30:37.355Z,27.05
2023-04-06T18:33:05.503Z,26.73
2023-04-06T18:35:33.110Z,28.02
2023-04-06T18:38:00.603Z,28.20
2023-04-06T18:40:40.788Z,26.50
2023-04-06T18:43:09.053Z,21.35
2023-04-06T18:45:38.976Z,24.75
2023-04-06T18:48:07.186Z,22.42
2023-04-06T18:50:34.982Z,22.88
2023-04-06T18:53:02.982Z,21.92
2023-04-06T18:55:33.568Z,23.00
2023-04-06T18:58:01.385Z,24.38
2023-04-06T19:00:28.975Z,24.88
2023-04-06T19:02:56.711Z,27.10
2023-04-06T19:05:24.659Z,21.77
2023-04-06T19:07:52.612Z,30.50
2023-04-06T19:10:20.440Z,22.35
2023-04-06T19:12:48.881Z,26.48
2023-04-06T19:15:16.773Z,29.20
2023-04-06T19:17:44.477Z,30.17
2023-04-06T19:20:12.108Z,40.30
2023-04-06T19:22:39.629Z,31.48
2023-04-06T19:25:08.332Z,30.33
2023-04-06T19:27:36.025Z,29.92
2023-04-06T19:30:05.276Z,28.63
2023-04-06T19:32:33.175Z,35.92
2023-04-06T19:35:01.576Z,35.60
2023-04-06T19:37:29.288Z,31.80
2023-04-06T19:39:56.725Z,25.80
2023-04-06T19:42:25.279Z,28.00
2023-04-06T19:44:53.280Z,33.78
2023-04-06T19:47:21.211Z,36.47
2023-04-06T19:49:48.741Z,27.42
2023-04-06T19:52:16.318Z,23.83
2023-04-06T19:54:46.843Z,27.42
2023-04-06T19:57:14.891Z,31.13
2023-04-06T19:59:43.025Z,27.05
2023-04-06T20:02:10.831Z,28.35
2023-04-06T20:04:39.297Z,30.55
2023-04-06T20:07:08.435Z,27.95
2023-04-06T20:09:36.036Z,28.92
2023-04-06T20:12:03.582Z,28.65
2023-04-06T20:14:31.157Z,31.80
2023-04-06T20:16:58.772Z,24.67
2023-04-06T20:19:26.227Z,39.60
2023-04-06T20:21:53.744Z,34.67
2023-04-06T20:24:21.588Z,33.50
2023-04-06T20:26:50.715Z,26.00
2023-04-06T20:29:18.321Z,25.02
2023-04-06T20:31:45.846Z,28.63
2023-04-06T20:34:14.108Z,27.70
2023-04-06T20:36:41.785Z,28.63
2023-04-06T20:39:09.317Z,27.42
2023-04-06T20:41:37.431Z,25.67
2023-04-06T20:44:04.829Z,41.08
2023-04-06T20:46:32.413Z,34.42
2023-04-06T20:48:59.884Z,29.98
2023-04-06T20:51:27.291Z,23.63
2023-04-06T20:53:54.940Z,23.40
2023-04-06T20:56:22.817Z,25.35
2023-04-06T20:58:50.581Z,32.33
2023-04-06T21:01:18.504Z,29.08
2023-04-06T21:03:46.096Z,28.70
2023-04-06T21:06:13.654Z,26.73
2023-04-06T21:08:41.290Z,28.08
2023-04-06T21:11:08.760Z,27.92
2023-04-06T21:13:36.374Z,31.00
2023-04-06T21:16:04.632Z,27.77
2023-04-06T21:18:32.224Z,22.95
2023-04-06T21:20:59.781Z,26.52
2023-04-06T21:23:27.366Z,30.30
2023-04-06T21:25:57.155Z,31.65
2023-04-06T21:28:26.190Z,27.58
2023-04-06T21:30:54.535Z,24.90
2023-04-06T21:33:22.370Z,26.48
2023-04-06T21:35:49.812Z,27.63
2023-04-06T21:38:17.230Z,31.02
2023-04-06T21:40:44.773Z,23.52
2023-04-06T21:43:12.282Z,25.52
2023-04-06T21:45:40.247Z,23.40
2023-04-06T21:48:07.928Z,26.25
2023-04-06T21:50:40.514Z,25.15
2023-04-06T21:53:08.108Z,25.58
2023-04-06T21:55:35.738Z,25.92
2023-04-06T21:58:03.166Z,28.67
2023-04-06T22:00:30.606Z,25.48
2023-04-06T22:02:58.221Z,34.05
2023-04-06T22:05:25.804Z,26.77
2023-04-06T22:07:53.505Z,25.40
2023-04-06T22:10:21.102Z,21.02
2023-04-06T22:12:50.623Z,22.23
2023-04-06T22:15:18.337Z,23.15
2023-04-06T22:17:45.868Z,31.90
2023-04-06T22:20:13.385Z,23.63
2023-04-06T22:22:41.946Z,24.35
2023-04-06T22:25:09.696Z,24.92
2023-04-06T22:27:37.229Z,24.17
2023-04-06T22:30:05.438Z,25.85
2023-04-06T22:32:32.967Z,27.95
2023-04-06T22:35:00.572Z,24.05
2023-04-06T22:37:27.979Z,25.88
2023-04-06T22:39:55.700Z,22.40
2023-04-06T22:42:23.180Z,26.20
2023-04-06T22:44:50.676Z,24.25
2023-04-06T22:47:18.217Z,26.33
2023-04-06T22:49:45.978Z,27.17
2023-04-06T22:52:13.464Z,21.45
2023-04-06T22:54:41.050Z,25.20
2023-04-06T22:57:08.444Z,25.90
2023-04-06T22:59:35.942Z,25.55
2023-04-06T23:02:03.577Z,24.73
2023-04-06T23:04:31.261Z,27.10
2023-04-06T23:06:58.736Z,28.02
2023-04-06T23:09:26.262Z,23.52
2023-04-06T23:11:53.734Z,22.23
2023-04-06T23:14:21.337Z,23.67
2023-04-06T23:16:50.778Z,23.23
2023-04-06T23:19:18.317Z,25.83
2023-04-06T23:21:45.784Z,24.10
2023-04-06T23:24:13.190Z,30.42
2023-04-06T23:26:40.658Z,33.58
2023-04-06T23:29:08.093Z,24.55
2023-04-06T23:31:35.875Z,27.83
2023-04-06T23:34:03.587Z,31.73
2023-04-06T23:36:32.105Z,25.63
2023-04-06T23:38:59.512Z,27.23
2023-04-06T23:41:27.788Z,27.55
2023-04-06T23:43:56.165Z,25.38
2023-04-06T23:46:23.633Z,31.65
2023-04-06T23:48:51.174Z,28.40
2023-04-06T23:51:18.977Z,29.30
2023-04-06T23:53:46.408Z,27.52
2023-04-06T23:56:13.875Z,23.15
2023-04-06T23:58:41.564Z,32.47
